sensor_id;sensor_type;location;lat;lon;timestamp;pressure;altitude;pressure_sealevel;temperature;humidity
7888;BME280;3989;48.810;9.208;2023-03-22T00:01:11;98659.88;;;8.20;nan
7888;BME280;3989;48.810;9.208;2023-03-22T00:03:38;98654.38;;;8.05;nan
7888;BME280;3989;48.810;9.208;2023-03-22T00:06:05;98645.25;;;8.08;nan
7888;BME280;3989;48.810;9.208;2023-03-22T00:08:34;98631.28;;;8.14;nan
7888;BME280;3989;48.810;9.208;2023-03-22T00:11:01;98646.44;;;8.29;nan
7888;BME280;3989;48.810;9.208;2023-03-22T00:13:28;98621.16;;;8.09;nan
7888;BME280;3989;48.810;9.208;2023-03-22T00:15:55;98660.56;;;8.30;nan
7888;BME280;3989;48.810;9.208;2023-03-22T00:18:24;98653.22;;;8.32;nan
7888;BME280;3989;48.810;9.208;2023-03-22T00:20:52;98649.25;;;8.36;nan
7888;BME280;3989;48.810;9.208;2023-03-22T00:23:20;98650.88;;;8.45;nan
7888;BME280;3989;48.810;9.208;2023-03-22T00:25:49;98650.88;;;8.45;nan
7888;BME280;3989;48.810;9.208;2023-03-22T00:28:16;98514.41;;;7.65;nan
7888;BME280;3989;48.810;9.208;2023-03-22T00:30:50;98609.50;;;8.18;nan
7888;BME280;3989;48.810;9.208;2023-03-22T00:33:17;98595.75;;;8.07;nan
7888;BME280;3989;48.810;9.208;2023-03-22T00:35:47;98617.50;;;8.10;nan
7888;BME280;3989;48.810;9.208;2023-03-22T00:38:14;98529.31;;;7.66;nan
7888;BME280;3989;48.810;9.208;2023-03-22T00:40:40;98643.75;;;8.37;nan
7888;BME280;3989;48.810;9.208;2023-03-22T00:45:55;98637.91;;;8.26;nan
7888;BME280;3989;48.810;9.208;2023-03-22T00:48:22;98564.84;;;7.73;nan
7888;BME280;3989;48.810;9.208;2023-03-22T00:50:50;98605.84;;;8.11;nan
7888;BME280;3989;48.810;9.208;2023-03-22T00:53:16;98628.31;;;8.33;nan
7888;BME280;3989;48.810;9.208;2023-03-22T00:55:43;98525.69;;;7.67;nan
7888;BME280;3989;48.810;9.208;2023-03-22T00:58:11;98569.16;;;7.99;nan
7888;BME280;3989;48.810;9.208;2023-03-22T01:00:38;98600.19;;;8.22;nan
7888;BME280;3989;48.810;9.208;2023-03-22T01:03:04;98574.81;;;8.04;nan
7888;BME280;3989;48.810;9.208;2023-03-22T01:05:31;98576.13;;;8.16;nan
7888;BME280;3989;48.810;9.208;2023-03-22T01:07:59;98632.63;;;8.42;nan
7888;BME280;3989;48.810;9.208;2023-03-22T01:10:30;98594.72;;;8.24;nan
7888;BME280;3989;48.810;9.208;2023-03-22T01:12:57;98600.22;;;8.30;nan
7888;BME280;3989;48.810;9.208;2023-03-22T01:15:25;98599.72;;;8.19;nan
7888;BME280;3989;48.810;9.208;2023-03-22T01:17:52;98609.84;;;8.23;nan
7888;BME280;3989;48.810;9.208;2023-03-22T01:20:18;98557.38;;;7.77;nan
7888;BME280;3989;48.810;9.208;2023-03-22T01:22:45;98604.38;;;8.09;nan
7888;BME280;3989;48.810;9.208;2023-03-22T01:25:12;98602.56;;;8.01;nan
7888;BME280;3989;48.810;9.208;2023-03-22T01:27:39;98599.38;;;7.89;nan
7888;BME280;3989;48.810;9.208;2023-03-22T01:30:07;98601.22;;;7.81;nan
7888;BME280;3989;48.810;9.208;2023-03-22T01:32:36;98593.09;;;7.74;nan
7888;BME280;3989;48.810;9.208;2023-03-22T01:35:04;98586.09;;;7.73;nan
7888;BME280;3989;48.810;9.208;2023-03-22T01:37:31;98573.16;;;7.70;nan
7888;BME280;3989;48.810;9.208;2023-03-22T01:39:57;98568.84;;;7.69;nan
7888;BME280;3989;48.810;9.208;2023-03-22T01:42:25;98546.28;;;7.49;nan
7888;BME280;3989;48.810;9.208;2023-03-22T01:47:59;98586.78;;;7.59;nan
7888;BME280;3989;48.810;9.208;2023-03-22T01:50:28;98476.34;;;6.92;nan
7888;BME280;3989;48.810;9.208;2023-03-22T01:52:56;98577.47;;;7.55;nan
7888;BME280;3989;48.810;9.208;2023-03-22T01:55:26;98547.41;;;7.38;nan
7888;BME280;3989;48.810;9.208;2023-03-22T01:57:53;98549.72;;;7.33;nan
7888;BME280;3989;48.810;9.208;2023-03-22T02:00:20;98553.69;;;7.21;nan
7888;BME280;3989;48.810;9.208;2023-03-22T02:02:49;98588.53;;;7.26;nan
7888;BME280;3989;48.810;9.208;2023-03-22T02:05:18;98508.97;;;6.68;nan
7888;BME280;3989;48.810;9.208;2023-03-22T02:07:47;98575.88;;;7.04;nan
7888;BME280;3989;48.810;9.208;2023-03-22T02:10:16;98581.81;;;6.98;nan
7888;BME280;3989;48.810;9.208;2023-03-22T02:13:01;98559.41;;;6.84;nan
7888;BME280;3989;48.810;9.208;2023-03-22T02:15:32;98565.84;;;6.82;nan
7888;BME280;3989;48.810;9.208;2023-03-22T02:18:13;98562.31;;;6.65;nan
7888;BME280;3989;48.810;9.208;2023-03-22T02:21:03;98542.53;;;6.52;nan
7888;BME280;3989;48.810;9.208;2023-03-22T02:23:58;98554.97;;;6.59;nan
7888;BME280;3989;48.810;9.208;2023-03-22T02:26:45;98542.78;;;6.41;nan
7888;BME280;3989;48.810;9.208;2023-03-22T02:29:24;98495.09;;;6.07;nan
7888;BME280;3989;48.810;9.208;2023-03-22T02:35:10;98555.78;;;6.52;nan
7888;BME280;3989;48.810;9.208;2023-03-22T02:38:14;98553.78;;;6.54;nan
7888;BME280;3989;48.810;9.208;2023-03-22T02:40:52;98551.47;;;6.51;nan
7888;BME280;3989;48.810;9.208;2023-03-22T02:43:28;98553.59;;;6.47;nan
7888;BME280;3989;48.810;9.208;2023-03-22T02:46:06;98545.97;;;6.44;nan
7888;BME280;3989;48.810;9.208;2023-03-22T02:48:39;98548.78;;;6.43;nan
7888;BME280;3989;48.810;9.208;2023-03-22T02:51:11;98527.81;;;6.23;nan
7888;BME280;3989;48.810;9.208;2023-03-22T02:53:44;98553.72;;;6.38;nan
7888;BME280;3989;48.810;9.208;2023-03-22T02:56:15;98553.19;;;6.34;nan
7888;BME280;3989;48.810;9.208;2023-03-22T02:58:48;98549.22;;;6.30;nan
7888;BME280;3989;48.810;9.208;2023-03-22T03:01:20;98532.41;;;6.13;nan
7888;BME280;3989;48.810;9.208;2023-03-22T03:03:49;98549.50;;;6.27;nan
7888;BME280;3989;48.810;9.208;2023-03-22T03:06:22;98502.31;;;5.97;nan
7888;BME280;3989;48.810;9.208;2023-03-22T03:08:50;98550.00;;;6.22;nan
7888;BME280;3989;48.810;9.208;2023-03-22T03:11:19;98548.50;;;6.20;nan
7888;BME280;3989;48.810;9.208;2023-03-22T03:13:46;98544.00;;;6.20;nan
7888;BME280;3989;48.810;9.208;2023-03-22T03:16:14;98521.78;;;6.13;nan
7888;BME280;3989;48.810;9.208;2023-03-22T03:18:46;98544.94;;;6.37;nan
7888;BME280;3989;48.810;9.208;2023-03-22T03:21:25;98544.38;;;6.25;nan
7888;BME280;3989;48.810;9.208;2023-03-22T03:24:13;98561.78;;;6.28;nan
7888;BME280;3989;48.810;9.208;2023-03-22T03:26:50;98557.94;;;6.22;nan
7888;BME280;3989;48.810;9.208;2023-03-22T03:29:23;98523.34;;;5.98;nan
7888;BME280;3989;48.810;9.208;2023-03-22T03:31:56;98574.47;;;6.16;nan
7888;BME280;3989;48.810;9.208;2023-03-22T03:34:30;98551.78;;;6.14;nan
7888;BME280;3989;48.810;9.208;2023-03-22T03:37:04;98560.84;;;6.11;nan
7888;BME280;3989;48.810;9.208;2023-03-22T03:39:36;98521.03;;;5.77;nan
7888;BME280;3989;48.810;9.208;2023-03-22T03:42:10;98509.91;;;5.74;nan
7888;BME280;3989;48.810;9.208;2023-03-22T03:44:38;98564.13;;;6.05;nan
7888;BME280;3989;48.810;9.208;2023-03-22T03:47:06;98560.09;;;6.01;nan
7888;BME280;3989;48.810;9.208;2023-03-22T03:49:34;98559.22;;;5.93;nan
7888;BME280;3989;48.810;9.208;2023-03-22T03:52:03;98563.69;;;5.92;nan
7888;BME280;3989;48.810;9.208;2023-03-22T03:54:30;98562.50;;;5.87;nan
7888;BME280;3989;48.810;9.208;2023-03-22T03:56:57;98563.94;;;5.81;nan
7888;BME280;3989;48.810;9.208;2023-03-22T03:59:27;98569.66;;;5.76;nan
7888;BME280;3989;48.810;9.208;2023-03-22T04:02:06;98405.41;;;4.73;nan
7888;BME280;3989;48.810;9.208;2023-03-22T04:04:33;98512.75;;;5.37;nan
7888;BME280;3989;48.810;9.208;2023-03-22T04:07:03;98469.47;;;5.03;nan
7888;BME280;3989;48.810;9.208;2023-03-22T04:09:31;98501.44;;;5.27;nan
7888;BME280;3989;48.810;9.208;2023-03-22T04:11:58;98493.13;;;5.22;nan
7888;BME280;3989;48.810;9.208;2023-03-22T04:14:27;98537.72;;;5.52;nan
7888;BME280;3989;48.810;9.208;2023-03-22T04:16:54;98506.28;;;5.32;nan
7888;BME280;3989;48.810;9.208;2023-03-22T04:19:21;98570.38;;;5.61;nan
7888;BME280;3989;48.810;9.208;2023-03-22T04:21:48;98564.03;;;5.54;nan
7888;BME280;3989;48.810;9.208;2023-03-22T04:24:17;98560.19;;;5.48;nan
7888;BME280;3989;48.810;9.208;2023-03-22T04:26:44;98536.66;;;5.27;nan
7888;BME280;3989;48.810;9.208;2023-03-22T04:29:10;98558.06;;;5.34;nan
7888;BME280;3989;48.810;9.208;2023-03-22T04:31:38;98486.56;;;4.91;nan
7888;BME280;3989;48.810;9.208;2023-03-22T04:34:05;98547.47;;;5.34;nan
7888;BME280;3989;48.810;9.208;2023-03-22T04:36:32;98555.72;;;5.31;nan
7888;BME280;3989;48.810;9.208;2023-03-22T04:39:01;98536.13;;;5.24;nan
7888;BME280;3989;48.810;9.208;2023-03-22T04:41:28;98483.13;;;4.98;nan
7888;BME280;3989;48.810;9.208;2023-03-22T04:43:55;98510.28;;;5.00;nan
7888;BME280;3989;48.810;9.208;2023-03-22T04:46:22;98535.09;;;5.17;nan
7888;BME280;3989;48.810;9.208;2023-03-22T04:48:50;98507.47;;;5.02;nan
7888;BME280;3989;48.810;9.208;2023-03-22T04:51:17;98521.38;;;5.21;nan
7888;BME280;3989;48.810;9.208;2023-03-22T04:53:43;98465.47;;;4.81;nan
7888;BME280;3989;48.810;9.208;2023-03-22T04:56:11;98532.06;;;5.29;nan
7888;BME280;3989;48.810;9.208;2023-03-22T04:58:39;98521.56;;;5.20;nan
7888;BME280;3989;48.810;9.208;2023-03-22T05:01:07;98498.03;;;4.99;nan
7888;BME280;3989;48.810;9.208;2023-03-22T05:03:34;98518.81;;;5.12;nan
7888;BME280;3989;48.810;9.208;2023-03-22T05:06:05;98488.44;;;4.98;nan
7888;BME280;3989;48.810;9.208;2023-03-22T05:08:33;98510.34;;;5.08;nan
7888;BME280;3989;48.810;9.208;2023-03-22T05:11:04;98511.94;;;5.19;nan
7888;BME280;3989;48.810;9.208;2023-03-22T05:13:30;98479.97;;;5.12;nan
7888;BME280;3989;48.810;9.208;2023-03-22T05:15:57;98506.94;;;5.34;nan
7888;BME280;3989;48.810;9.208;2023-03-22T05:18:24;98504.47;;;5.32;nan
7888;BME280;3989;48.810;9.208;2023-03-22T05:20:53;98488.34;;;5.08;nan
7888;BME280;3989;48.810;9.208;2023-03-22T05:23:21;98511.34;;;5.43;nan
7888;BME280;3989;48.810;9.208;2023-03-22T05:25:50;98424.66;;;5.01;nan
7888;BME280;3989;48.810;9.208;2023-03-22T05:28:18;98512.28;;;5.59;nan
7888;BME280;3989;48.810;9.208;2023-03-22T05:30:46;98513.94;;;5.60;nan
7888;BME280;3989;48.810;9.208;2023-03-22T05:33:14;98501.34;;;5.54;nan
7888;BME280;3989;48.810;9.208;2023-03-22T05:35:41;98518.56;;;5.58;nan
7888;BME280;3989;48.810;9.208;2023-03-22T05:38:08;98517.22;;;5.54;nan
7888;BME280;3989;48.810;9.208;2023-03-22T05:40:36;98462.84;;;5.16;nan
7888;BME280;3989;48.810;9.208;2023-03-22T05:43:03;98494.63;;;5.42;nan
7888;BME280;3989;48.810;9.208;2023-03-22T05:45:30;98517.88;;;5.56;nan
7888;BME280;3989;48.810;9.208;2023-03-22T05:47:57;98502.09;;;5.47;nan
7888;BME280;3989;48.810;9.208;2023-03-22T05:50:24;98528.69;;;5.63;nan
7888;BME280;3989;48.810;9.208;2023-03-22T05:52:50;98492.56;;;5.54;nan
7888;BME280;3989;48.810;9.208;2023-03-22T05:55:18;98495.41;;;5.78;nan
7888;BME280;3989;48.810;9.208;2023-03-22T05:57:46;98523.03;;;6.01;nan
7888;BME280;3989;48.810;9.208;2023-03-22T06:00:21;98468.19;;;5.68;nan
7888;BME280;3989;48.810;9.208;2023-03-22T06:02:49;98526.78;;;6.16;nan
7888;BME280;3989;48.810;9.208;2023-03-22T06:05:20;98395.72;;;5.43;nan
7888;BME280;3989;48.810;9.208;2023-03-22T06:07:47;98364.38;;;5.30;nan
7888;BME280;3989;48.810;9.208;2023-03-22T06:10:14;98542.06;;;6.30;nan
7888;BME280;3989;48.810;9.208;2023-03-22T06:12:42;98263.94;;;4.87;nan
7888;BME280;3989;48.810;9.208;2023-03-22T06:15:11;98420.34;;;5.87;nan
7888;BME280;3989;48.810;9.208;2023-03-22T06:17:38;98439.09;;;6.02;nan
7888;BME280;3989;48.810;9.208;2023-03-22T06:20:06;98531.84;;;6.77;nan
7888;BME280;3989;48.810;9.208;2023-03-22T06:22:36;98532.88;;;6.93;nan
7888;BME280;3989;48.810;9.208;2023-03-22T06:25:03;98538.91;;;7.11;nan
7888;BME280;3989;48.810;9.208;2023-03-22T06:27:30;98401.66;;;6.47;nan
7888;BME280;3989;48.810;9.208;2023-03-22T06:29:56;98533.97;;;7.40;nan
7888;BME280;3989;48.810;9.208;2023-03-22T06:32:25;98443.84;;;6.98;nan
7888;BME280;3989;48.810;9.208;2023-03-22T06:34:52;98521.72;;;7.55;nan
7888;BME280;3989;48.810;9.208;2023-03-22T06:37:18;98549.75;;;7.90;nan
7888;BME280;3989;48.810;9.208;2023-03-22T06:39:45;98539.59;;;8.02;nan
7888;BME280;3989;48.810;9.208;2023-03-22T06:42:12;98549.34;;;8.25;nan
7888;BME280;3989;48.810;9.208;2023-03-22T06:44:38;98539.75;;;8.32;nan
7888;BME280;3989;48.810;9.208;2023-03-22T06:47:08;98546.00;;;8.48;nan
7888;BME280;3989;48.810;9.208;2023-03-22T06:49:36;98553.56;;;8.67;nan
7888;BME280;3989;48.810;9.208;2023-03-22T06:52:03;98446.38;;;8.11;nan
7888;BME280;3989;48.810;9.208;2023-03-22T06:54:30;98554.47;;;8.90;nan
7888;BME280;3989;48.810;9.208;2023-03-22T06:56:57;98551.78;;;8.98;nan
7888;BME280;3989;48.810;9.208;2023-03-22T06:59:23;98551.94;;;9.05;nan
7888;BME280;3989;48.810;9.208;2023-03-22T07:01:50;98551.88;;;9.13;nan
7888;BME280;3989;48.810;9.208;2023-03-22T07:04:16;98530.94;;;9.10;nan
7888;BME280;3989;48.810;9.208;2023-03-22T07:06:45;98413.72;;;8.50;nan
7888;BME280;3989;48.810;9.208;2023-03-22T07:09:12;98518.16;;;9.28;nan
7888;BME280;3989;48.810;9.208;2023-03-22T07:11:38;98487.47;;;9.17;nan
7888;BME280;3989;48.810;9.208;2023-03-22T07:14:05;98517.16;;;9.52;nan
7888;BME280;3989;48.810;9.208;2023-03-22T07:16:31;98543.69;;;9.82;nan
7888;BME280;3989;48.810;9.208;2023-03-22T07:18:58;98541.09;;;9.97;nan
7888;BME280;3989;48.810;9.208;2023-03-22T07:21:25;98487.72;;;9.68;nan
7888;BME280;3989;48.810;9.208;2023-03-22T07:23:53;98456.00;;;9.73;nan
7888;BME280;3989;48.810;9.208;2023-03-22T07:26:19;98434.91;;;9.71;nan
7888;BME280;3989;48.810;9.208;2023-03-22T07:28:46;98496.28;;;10.30;nan
7888;BME280;3989;48.810;9.208;2023-03-22T07:31:13;98487.34;;;10.37;nan
7888;BME280;3989;48.810;9.208;2023-03-22T07:33:40;98537.28;;;10.87;nan
7888;BME280;3989;48.810;9.208;2023-03-22T07:36:07;98404.50;;;10.24;nan
7888;BME280;3989;48.810;9.208;2023-03-22T07:38:35;98512.66;;;11.06;nan
7888;BME280;3989;48.810;9.208;2023-03-22T07:41:03;98374.84;;;10.48;nan
7888;BME280;3989;48.810;9.208;2023-03-22T07:43:30;98522.00;;;11.53;nan
7888;BME280;3989;48.810;9.208;2023-03-22T07:45:57;98535.88;;;11.84;nan
7888;BME280;3989;48.810;9.208;2023-03-22T07:48:24;98447.94;;;11.47;nan
7888;BME280;3989;48.810;9.208;2023-03-22T07:50:54;98537.84;;;12.25;nan
7888;BME280;3989;48.810;9.208;2023-03-22T07:53:21;98535.72;;;12.48;nan
7888;BME280;3989;48.810;9.208;2023-03-22T07:55:47;98530.44;;;12.61;nan
7888;BME280;3989;48.810;9.208;2023-03-22T07:58:15;98543.16;;;12.87;nan
7888;BME280;3989;48.810;9.208;2023-03-22T08:00:42;98473.69;;;12.72;nan
7888;BME280;3989;48.810;9.208;2023-03-22T08:03:10;98541.91;;;13.24;nan
7888;BME280;3989;48.810;9.208;2023-03-22T08:05:39;98535.94;;;13.35;nan
7888;BME280;3989;48.810;9.208;2023-03-22T08:08:05;98538.03;;;13.46;nan
7888;BME280;3989;48.810;9.208;2023-03-22T08:10:32;98513.50;;;13.42;nan
7888;BME280;3989;48.810;9.208;2023-03-22T08:12:58;98468.91;;;13.22;nan
7888;BME280;3989;48.810;9.208;2023-03-22T08:15:26;98495.56;;;13.49;nan
7888;BME280;3989;48.810;9.208;2023-03-22T08:17:53;98544.72;;;13.83;nan
7888;BME280;3989;48.810;9.208;2023-03-22T08:20:22;98540.78;;;13.85;nan
7888;BME280;3989;48.810;9.208;2023-03-22T08:22:50;98361.22;;;12.72;nan
7888;BME280;3989;48.810;9.208;2023-03-22T08:25:17;98521.78;;;13.80;nan
7888;BME280;3989;48.810;9.208;2023-03-22T08:27:43;98516.00;;;13.83;nan
7888;BME280;3989;48.810;9.208;2023-03-22T08:30:11;98515.59;;;13.99;nan
7888;BME280;3989;48.810;9.208;2023-03-22T08:32:39;98528.16;;;14.25;nan
7888;BME280;3989;48.810;9.208;2023-03-22T08:35:06;98518.25;;;14.32;nan
7888;BME280;3989;48.810;9.208;2023-03-22T08:37:33;98479.06;;;14.11;nan
7888;BME280;3989;48.810;9.208;2023-03-22T08:39:59;98523.59;;;14.58;nan
7888;BME280;3989;48.810;9.208;2023-03-22T08:42:26;98526.88;;;14.67;nan
7888;BME280;3989;48.810;9.208;2023-03-22T08:44:52;98498.81;;;14.63;nan
7888;BME280;3989;48.810;9.208;2023-03-22T08:47:19;98490.94;;;14.68;nan
7888;BME280;3989;48.810;9.208;2023-03-22T08:49:47;98519.78;;;14.92;nan
7888;BME280;3989;48.810;9.208;2023-03-22T08:52:13;98520.97;;;15.03;nan
7888;BME280;3989;48.810;9.208;2023-03-22T08:54:40;98517.81;;;15.12;nan
7888;BME280;3989;48.810;9.208;2023-03-22T08:57:06;98471.84;;;14.89;nan
7888;BME280;3989;48.810;9.208;2023-03-22T08:59:34;98516.09;;;15.31;nan
7888;BME280;3989;48.810;9.208;2023-03-22T09:02:01;98509.81;;;15.44;nan
7888;BME280;3989;48.810;9.208;2023-03-22T09:04:27;98499.25;;;15.42;nan
7888;BME280;3989;48.810;9.208;2023-03-22T09:06:55;98454.34;;;15.18;nan
7888;BME280;3989;48.810;9.208;2023-03-22T09:09:22;98429.53;;;14.78;nan
7888;BME280;3989;48.810;9.208;2023-03-22T09:11:48;98519.94;;;15.42;nan
7888;BME280;3989;48.810;9.208;2023-03-22T09:14:15;98513.09;;;15.46;nan
7888;BME280;3989;48.810;9.208;2023-03-22T09:16:41;98474.13;;;15.30;nan
7888;BME280;3989;48.810;9.208;2023-03-22T09:19:08;98504.53;;;15.62;nan
7888;BME280;3989;48.810;9.208;2023-03-22T09:21:35;98413.59;;;15.21;nan
7888;BME280;3989;48.810;9.208;2023-03-22T09:24:03;98435.75;;;15.41;nan
7888;BME280;3989;48.810;9.208;2023-03-22T09:26:30;98502.25;;;15.90;nan
7888;BME280;3989;48.810;9.208;2023-03-22T09:28:56;98497.56;;;15.86;nan
7888;BME280;3989;48.810;9.208;2023-03-22T09:31:23;98476.41;;;15.89;nan
7888;BME280;3989;48.810;9.208;2023-03-22T09:33:50;98470.28;;;16.00;nan
7888;BME280;3989;48.810;9.208;2023-03-22T09:36:16;98427.47;;;15.99;nan
7888;BME280;3989;48.810;9.208;2023-03-22T09:38:44;98485.56;;;16.49;nan
7888;BME280;3989;48.810;9.208;2023-03-22T09:41:15;98410.75;;;16.15;nan
7888;BME280;3989;48.810;9.208;2023-03-22T09:43:47;98472.41;;;16.77;nan
7888;BME280;3989;48.810;9.208;2023-03-22T09:46:16;98408.72;;;16.47;nan
7888;BME280;3989;48.810;9.208;2023-03-22T09:48:46;98472.53;;;17.01;nan
7888;BME280;3989;48.810;9.208;2023-03-22T09:51:28;98430.88;;;16.85;nan
7888;BME280;3989;48.810;9.208;2023-03-22T09:53:56;98425.22;;;16.87;nan
7888;BME280;3989;48.810;9.208;2023-03-22T09:56:26;98417.59;;;17.02;nan
7888;BME280;3989;48.810;9.208;2023-03-22T09:58:58;98465.69;;;17.46;nan
7888;BME280;3989;48.810;9.208;2023-03-22T10:01:32;98394.84;;;17.09;nan
7888;BME280;3989;48.810;9.208;2023-03-22T10:04:28;98453.56;;;17.67;nan
7888;BME280;3989;48.810;9.208;2023-03-22T10:07:05;98449.13;;;17.72;nan
7888;BME280;3989;48.810;9.208;2023-03-22T10:09:39;98385.78;;;17.45;nan
7888;BME280;3989;48.810;9.208;2023-03-22T10:12:15;98384.19;;;17.44;nan
7888;BME280;3989;48.810;9.208;2023-03-22T10:14:49;98427.69;;;17.48;nan
7888;BME280;3989;48.810;9.208;2023-03-22T10:17:18;98445.16;;;17.45;nan
7888;BME280;3989;48.810;9.208;2023-03-22T10:19:53;98423.84;;;17.14;nan
7888;BME280;3989;48.810;9.208;2023-03-22T10:22:23;98428.22;;;16.97;nan
7888;BME280;3989;48.810;9.208;2023-03-22T10:24:50;98418.88;;;16.81;nan
7888;BME280;3989;48.810;9.208;2023-03-22T10:27:21;98431.06;;;16.84;nan
7888;BME280;3989;48.810;9.208;2023-03-22T10:29:50;98372.16;;;16.57;nan
7888;BME280;3989;48.810;9.208;2023-03-22T10:32:22;98414.25;;;16.88;nan
7888;BME280;3989;48.810;9.208;2023-03-22T10:34:53;98425.16;;;17.23;nan
7888;BME280;3989;48.810;9.208;2023-03-22T10:37:22;98422.81;;;17.56;nan
7888;BME280;3989;48.810;9.208;2023-03-22T10:39:53;98346.16;;;17.46;nan
7888;BME280;3989;48.810;9.208;2023-03-22T10:42:25;98418.34;;;18.43;nan
7888;BME280;3989;48.810;9.208;2023-03-22T10:44:55;98422.56;;;18.74;nan
7888;BME280;3989;48.810;9.208;2023-03-22T10:47:28;98338.47;;;17.96;nan
7888;BME280;3989;48.810;9.208;2023-03-22T10:49:58;98413.63;;;18.62;nan
7888;BME280;3989;48.810;9.208;2023-03-22T10:52:35;98417.59;;;18.82;nan
7888;BME280;3989;48.810;9.208;2023-03-22T10:55:09;98408.63;;;19.38;nan
7888;BME280;3989;48.810;9.208;2023-03-22T10:57:38;98359.50;;;19.30;nan
7888;BME280;3989;48.810;9.208;2023-03-22T11:00:08;98403.00;;;19.40;nan
7888;BME280;3989;48.810;9.208;2023-03-22T11:02:46;98393.06;;;19.46;nan
7888;BME280;3989;48.810;9.208;2023-03-22T11:05:20;98370.44;;;19.52;nan
7888;BME280;3989;48.810;9.208;2023-03-22T11:07:48;98309.31;;;19.39;nan
7888;BME280;3989;48.810;9.208;2023-03-22T11:10:21;98388.56;;;20.23;nan
7888;BME280;3989;48.810;9.208;2023-03-22T11:12:52;98317.56;;;19.99;nan
7888;BME280;3989;48.810;9.208;2023-03-22T11:15:22;98393.56;;;20.48;nan
7888;BME280;3989;48.810;9.208;2023-03-22T11:17:50;98394.88;;;20.45;nan
7888;BME280;3989;48.810;9.208;2023-03-22T11:20:18;98379.56;;;20.34;nan
7888;BME280;3989;48.810;9.208;2023-03-22T11:22:46;98378.50;;;20.35;nan
7888;BME280;3989;48.810;9.208;2023-03-22T11:25:16;98395.50;;;20.30;nan
7888;BME280;3989;48.810;9.208;2023-03-22T11:27:51;98352.13;;;20.30;nan
7888;BME280;3989;48.810;9.208;2023-03-22T11:30:21;98370.47;;;20.67;nan
7888;BME280;3989;48.810;9.208;2023-03-22T11:32:48;98323.53;;;20.61;nan
7888;BME280;3989;48.810;9.208;2023-03-22T11:35:24;98320.03;;;20.66;nan
7888;BME280;3989;48.810;9.208;2023-03-22T11:37:53;98347.69;;;20.89;nan
7888;BME280;3989;48.810;9.208;2023-03-22T11:40:21;98350.63;;;20.88;nan
7888;BME280;3989;48.810;9.208;2023-03-22T11:42:53;98350.84;;;21.08;nan
7888;BME280;3989;48.810;9.208;2023-03-22T11:45:24;98339.44;;;21.06;nan
7888;BME280;3989;48.810;9.208;2023-03-22T11:47:53;98359.06;;;21.13;nan
7888;BME280;3989;48.810;9.208;2023-03-22T11:50:26;98279.25;;;20.29;nan
7888;BME280;3989;48.810;9.208;2023-03-22T11:52:53;98327.56;;;20.37;nan
7888;BME280;3989;48.810;9.208;2023-03-22T11:55:21;98344.84;;;20.31;nan
7888;BME280;3989;48.810;9.208;2023-03-22T11:57:48;98347.56;;;20.14;nan
7888;BME280;3989;48.810;9.208;2023-03-22T12:00:19;98338.69;;;20.19;nan
7888;BME280;3989;48.810;9.208;2023-03-22T12:02:49;98278.50;;;19.95;nan
7888;BME280;3989;48.810;9.208;2023-03-22T12:05:19;98334.09;;;20.63;nan
7888;BME280;3989;48.810;9.208;2023-03-22T12:07:51;98332.31;;;20.73;nan
7888;BME280;3989;48.810;9.208;2023-03-22T12:10:23;98319.09;;;20.77;nan
7888;BME280;3989;48.810;9.208;2023-03-22T12:12:54;98278.75;;;20.59;nan
7888;BME280;3989;48.810;9.208;2023-03-22T12:15:25;98328.03;;;20.77;nan
7888;BME280;3989;48.810;9.208;2023-03-22T12:17:55;98320.50;;;20.84;nan
7888;BME280;3989;48.810;9.208;2023-03-22T12:20:35;98150.59;;;19.66;nan
7888;BME280;3989;48.810;9.208;2023-03-22T12:23:10;98269.44;;;20.06;nan
7888;BME280;3989;48.810;9.208;2023-03-22T12:25:39;98275.16;;;20.10;nan
7888;BME280;3989;48.810;9.208;2023-03-22T12:28:10;98332.78;;;19.83;nan
7888;BME280;3989;48.810;9.208;2023-03-22T12:30:43;98325.44;;;19.84;nan
7888;BME280;3989;48.810;9.208;2023-03-22T12:33:16;98124.28;;;18.85;nan
7888;BME280;3989;48.810;9.208;2023-03-22T12:35:45;98314.84;;;19.99;nan
7888;BME280;3989;48.810;9.208;2023-03-22T12:38:22;98311.59;;;20.19;nan
7888;BME280;3989;48.810;9.208;2023-03-22T12:40:51;98321.53;;;20.13;nan
7888;BME280;3989;48.810;9.208;2023-03-22T12:43:26;98308.63;;;19.99;nan
7888;BME280;3989;48.810;9.208;2023-03-22T12:46:02;98297.59;;;19.67;nan
7888;BME280;3989;48.810;9.208;2023-03-22T12:48:35;98320.31;;;19.66;nan
7888;BME280;3989;48.810;9.208;2023-03-22T12:51:06;98261.63;;;19.50;nan
7888;BME280;3989;48.810;9.208;2023-03-22T12:53:35;98259.16;;;19.31;nan
7888;BME280;3989;48.810;9.208;2023-03-22T12:56:08;98214.50;;;18.96;nan
7888;BME280;3989;48.810;9.208;2023-03-22T12:58:36;98295.97;;;19.66;nan
7888;BME280;3989;48.810;9.208;2023-03-22T13:01:11;98306.13;;;19.75;nan
7888;BME280;3989;48.810;9.208;2023-03-22T13:03:44;98181.63;;;19.04;nan
7888;BME280;3989;48.810;9.208;2023-03-22T13:06:28;98294.22;;;19.76;nan
7888;BME280;3989;48.810;9.208;2023-03-22T13:09:16;98262.06;;;19.80;nan
7888;BME280;3989;48.810;9.208;2023-03-22T13:11:44;98285.56;;;19.96;nan
7888;BME280;3989;48.810;9.208;2023-03-22T13:16:59;98288.91;;;20.25;nan
7888;BME280;3989;48.810;9.208;2023-03-22T13:19:29;98188.81;;;19.70;nan
7888;BME280;3989;48.810;9.208;2023-03-22T13:22:21;98283.56;;;20.52;nan
7888;BME280;3989;48.810;9.208;2023-03-22T13:24:59;98273.22;;;20.75;nan
7888;BME280;3989;48.810;9.208;2023-03-22T13:27:33;98109.88;;;19.56;nan
7888;BME280;3989;48.810;9.208;2023-03-22T13:30:02;98200.91;;;20.06;nan
7888;BME280;3989;48.810;9.208;2023-03-22T13:32:34;98139.84;;;19.50;nan
7888;BME280;3989;48.810;9.208;2023-03-22T13:35:02;98264.09;;;20.33;nan
7888;BME280;3989;48.810;9.208;2023-03-22T13:37:31;98257.66;;;20.39;nan
7888;BME280;3989;48.810;9.208;2023-03-22T13:39:59;98229.75;;;20.38;nan
7888;BME280;3989;48.810;9.208;2023-03-22T13:42:30;98091.94;;;19.50;nan
7888;BME280;3989;48.810;9.208;2023-03-22T13:44:59;98251.06;;;20.57;nan
7888;BME280;3989;48.810;9.208;2023-03-22T13:47:35;98255.22;;;20.37;nan
7888;BME280;3989;48.810;9.208;2023-03-22T13:50:09;98209.94;;;20.16;nan
7888;BME280;3989;48.810;9.208;2023-03-22T13:52:39;98222.38;;;20.34;nan
7888;BME280;3989;48.810;9.208;2023-03-22T13:55:15;98244.69;;;20.41;nan
7888;BME280;3989;48.810;9.208;2023-03-22T13:58:00;98232.72;;;20.37;nan
7888;BME280;3989;48.810;9.208;2023-03-22T14:00:53;98233.19;;;20.29;nan
7888;BME280;3989;48.810;9.208;2023-03-22T14:03:28;98236.84;;;20.23;nan
7888;BME280;3989;48.810;9.208;2023-03-22T14:06:06;98118.19;;;19.50;nan
7888;BME280;3989;48.810;9.208;2023-03-22T14:08:35;98217.16;;;20.27;nan
7888;BME280;3989;48.810;9.208;2023-03-22T14:11:13;98130.72;;;20.04;nan
7888;BME280;3989;48.810;9.208;2023-03-22T14:13:46;98188.91;;;20.77;nan
7888;BME280;3989;48.810;9.208;2023-03-22T14:16:18;98163.34;;;20.68;nan
7888;BME280;3989;48.810;9.208;2023-03-22T14:18:48;98193.81;;;20.80;nan